Map

Track Data

SID SEASON NUMBER BASIN SUBBASIN NAME ISO_TIME NATURE LAT LON WMO_WIND WMO_PRES WMO_AGENCY TRACK_TYPE DIST2LAND LANDFALL IFLAG USA_AGENCY USA_ATCF_ID USA_LAT USA_LON USA_RECORD USA_STATUS USA_WIND USA_PRES USA_SSHS USA_R34_NE USA_R34_SE USA_R34_SW USA_R34_NW USA_R50_NE USA_R50_SE USA_R50_SW USA_R50_NW USA_R64_NE USA_R64_SE USA_R64_SW USA_R64_NW USA_POCI USA_ROCI USA_RMW USA_EYE TOKYO_LAT TOKYO_LON TOKYO_GRADE TOKYO_WIND TOKYO_PRES TOKYO_R50_DIR TOKYO_R50_LONG TOKYO_R50_SHORT TOKYO_R30_DIR TOKYO_R30_LONG TOKYO_R30_SHORT TOKYO_LAND CMA_LAT CMA_LON CMA_CAT CMA_WIND CMA_PRES HKO_LAT HKO_LON HKO_CAT HKO_WIND HKO_PRES NEWDELHI_LAT NEWDELHI_LON NEWDELHI_GRADE NEWDELHI_WIND NEWDELHI_PRES NEWDELHI_CI NEWDELHI_DP NEWDELHI_POCI REUNION_LAT REUNION_LON REUNION_TYPE REUNION_WIND REUNION_PRES REUNION_TNUM REUNION_CI REUNION_RMW REUNION_R34_NE REUNION_R34_SE REUNION_R34_SW REUNION_R34_NW REUNION_R50_NE REUNION_R50_SE REUNION_R50_SW REUNION_R50_NW REUNION_R64_NE REUNION_R64_SE REUNION_R64_SW REUNION_R64_NW BOM_LAT BOM_LON BOM_TYPE BOM_WIND BOM_PRES BOM_TNUM BOM_CI BOM_RMW BOM_R34_NE BOM_R34_SE BOM_R34_SW BOM_R34_NW BOM_R50_NE BOM_R50_SE BOM_R50_SW BOM_R50_NW BOM_R64_NE BOM_R64_SE BOM_R64_SW BOM_R64_NW BOM_ROCI BOM_POCI BOM_EYE BOM_POS_METHOD BOM_PRES_METHOD NADI_LAT NADI_LON NADI_CAT NADI_WIND NADI_PRES WELLINGTON_LAT WELLINGTON_LON WELLINGTON_WIND WELLINGTON_PRES DS824_LAT DS824_LON DS824_STAGE DS824_WIND DS824_PRES TD9636_LAT TD9636_LON TD9636_STAGE TD9636_WIND TD9636_PRES TD9635_LAT TD9635_LON TD9635_WIND TD9635_PRES TD9635_ROCI NEUMANN_LAT NEUMANN_LON NEUMANN_CLASS NEUMANN_WIND NEUMANN_PRES MLC_LAT MLC_LON MLC_CLASS MLC_WIND MLC_PRES USA_GUST BOM_GUST BOM_GUST_PER REUNION_GUST REUNION_GUST_PER USA_SEAHGT USA_SEARAD_NE USA_SEARAD_SE USA_SEARAD_SW USA_SEARAD_NW STORM_SPEED STORM_DIR
1906264N13127 1906 38 WP MM NOT_NAMED 1906-09-20 16:00:00 NR 13.3000 126.800 main 187 164 __________O___ -1 13.3000 126.800 7 8 272
1906264N13127 1906 38 WP MM NOT_NAMED 1906-09-20 18:00:00 NR 13.3099 126.514 main 164 132 __________P___ -1 13.3099 126.514 7 9 272
1906264N13127 1906 38 WP MM NOT_NAMED 1906-09-20 21:00:00 NR 13.3271 126.060 main 132 99 __________P___ -1 13.3271 126.060 7 9 272
1906264N13127 1906 38 WP MM NOT_NAMED 1906-09-21 00:00:00 NR 13.3509 125.545 main 105 63 __________P___ -1 13.3509 125.545 7 11 273
1906264N13127 1906 38 WP MM NOT_NAMED 1906-09-21 03:00:00 NR 13.3855 124.933 main 63 46 __________P___ -1 13.3855 124.933 7 12 273
1906264N13127 1906 38 WP MM NOT_NAMED 1906-09-21 04:00:00 NR 13.4000 124.700 main 46 11 __________O___ -1 13.4000 124.700 3 15 274
1906264N13127 1906 38 WP MM NOT_NAMED 1906-09-21 06:00:00 NR 13.4341 124.189 main 11 0 __________P___ -1 13.4341 124.189 3 16 274
1906264N13127 1906 38 WP MM NOT_NAMED 1906-09-21 09:00:00 NR 13.4974 123.341 main 0 0 __________P___ -1 13.4974 123.341 3 17 275
1906264N13127 1906 38 WP MM NOT_NAMED 1906-09-21 12:00:00 NR 13.5746 122.448 main 0 0 __________P___ -1 13.5746 122.448 3 17 276
1906264N13127 1906 38 WP MM NOT_NAMED 1906-09-21 15:00:00 NR 13.6662 121.576 main 10 0 __________P___ -1 13.6662 121.576 3 17 276
1906264N13127 1906 38 WP MM NOT_NAMED 1906-09-21 16:00:00 NR 13.7000 121.300 main 0 0 __________O___ -1 13.7000 121.300 4 15 278
1906264N13127 1906 38 WP MM NOT_NAMED 1906-09-21 18:00:00 NR 13.7764 120.800 main 10 0 __________P___ -1 13.7764 120.800 4 14 280
1906264N13127 1906 38 WP MM NOT_NAMED 1906-09-21 21:00:00 NR 13.9044 120.093 main 53 53 __________P___ -1 13.9044 120.093 4 14 281
1906264N13127 1906 38 WP MM NOT_NAMED 1906-09-22 00:00:00 NR 14.0373 119.431 main 116 108 __________P___ -1 14.0373 119.431 4 13 282
1906264N13127 1906 38 WP MM NOT_NAMED 1906-09-22 03:00:00 NR 14.1623 118.803 main 155 155 __________P___ -1 14.1623 118.803 4 12 281
1906264N13127 1906 38 WP MM NOT_NAMED 1906-09-22 04:00:00 NR 14.2000 118.600 main 174 174 __________O___ -1 14.2000 118.600 4 12 279
1906264N13127 1906 38 WP MM NOT_NAMED 1906-09-22 06:00:00 NR 14.2609 118.188 main 212 212 __________P___ -1 14.2609 118.188 4 12 278
1906264N13127 1906 38 WP MM NOT_NAMED 1906-09-22 09:00:00 NR 14.3401 117.596 main 274 274 __________P___ -1 14.3401 117.596 4 11 278
1906264N13127 1906 38 WP MM NOT_NAMED 1906-09-22 12:00:00 NR 14.4102 117.029 main 331 331 __________P___ -1 14.4102 117.029 4 11 277
1906264N13127 1906 38 WP MM NOT_NAMED 1906-09-22 15:00:00 NR 14.4773 116.480 main 379 389 __________P___ -1 14.4773 116.480 4 11 277
1906264N13127 1906 38 WP MM NOT_NAMED 1906-09-22 16:00:00 NR 14.5000 116.300 main 399 399 __________O___ -1 14.5000 116.300 4 10 278
1906264N13127 1906 38 WP MM NOT_NAMED 1906-09-22 18:00:00 NR 14.5468 115.949 main 441 436 __________P___ -1 14.5468 115.949 4 10 278
1906264N13127 1906 38 WP MM NOT_NAMED 1906-09-22 21:00:00 NR 14.6173 115.435 main 487 487 __________P___ -1 14.6173 115.435 4 10 278
1906264N13127 1906 38 WP MM NOT_NAMED 1906-09-23 00:00:00 NR 14.6911 114.920 main 535 535 __________P___ -1 14.6911 114.920 4 10 279
1906264N13127 1906 38 WP MM NOT_NAMED 1906-09-23 03:00:00 NR 14.7713 114.386 main 558 537 __________P___ -1 14.7713 114.386 4 11 279
1906264N13127 1906 38 WP MM NOT_NAMED 1906-09-23 04:00:00 NR 14.8000 114.200 main 537 497 __________O___ -1 14.8000 114.200 4 12 279
1906264N13127 1906 38 WP MM NOT_NAMED 1906-09-23 06:00:00 NR 14.8584 113.796 main 497 434 __________P___ -1 14.8584 113.796 4 12 279
1906264N13127 1906 38 WP MM NOT_NAMED 1906-09-23 09:00:00 NR 14.9523 113.164 main 437 368 __________P___ -1 14.9523 113.164 4 12 279
1906264N13127 1906 38 WP MM NOT_NAMED 1906-09-23 12:00:00 NR 15.0535 112.523 main 368 306 __________P___ -1 15.0535 112.523 4 12 280
1906264N13127 1906 38 WP MM NOT_NAMED 1906-09-23 15:00:00 NR 15.1621 111.900 main 306 284 __________P___ -1 15.1621 111.900 4 12 280
1906264N13127 1906 38 WP MM NOT_NAMED 1906-09-23 16:00:00 NR 15.2000 111.700 main 284 245 __________O___ -1 15.2000 111.700 4 12 282
1906264N13127 1906 38 WP MM NOT_NAMED 1906-09-23 18:00:00 NR 15.2783 111.316 main 245 198 __________P___ -1 15.2783 111.316 4 11 283
1906264N13127 1906 38 WP MM NOT_NAMED 1906-09-23 21:00:00 NR 15.4009 110.774 main 198 153 __________P___ -1 15.4009 110.774 4 10 284
1906264N13127 1906 38 WP MM NOT_NAMED 1906-09-24 00:00:00 NR 15.5278 110.261 main 153 106 __________P___ -1 15.5278 110.261 4 10 285
1906264N13127 1906 38 WP MM NOT_NAMED 1906-09-24 03:00:00 NR 15.6569 109.764 main 111 93 __________P___ -1 15.6569 109.764 4 10 285
1906264N13127 1906 38 WP MM NOT_NAMED 1906-09-24 04:00:00 NR 15.7000 109.600 main 93 __________O___ -1 15.7000 109.600 4 10 285

Digital Typhoon Data and Search

About IBTrACS Database

This database is a web-friendly format of International Best Track Archive for Climate Stewardship (IBTrACS), a global best track data archive curated by NOAA dating back to 1842.

Updated: 2021-11-26